Time;durP1;ratioP1;P1;durP2;ratioP2;P2;SDS_P1;SDS_P2;PMS_P1;PMS_P2;Temp;Humidity;BMP_temperature;BMP_pressure;BME280_temperature;BME280_humidity;BME280_pressure;Samples;Min_cycle;Max_cycle;Signal;HPM_P1;HPM_P2
2022/04/30 00:00:40;;;;;;;11.38;5.85;;;6.90;99.90;;;;;;5076891;28;20078;-75
2022/04/30 00:03:07;;;;;;;10.65;5.22;;;7.10;99.90;;;;;;5094279;28;20110;-74
2022/04/30 00:05:34;;;;;;;8.77;5.18;;;7.20;99.90;;;;;;5094252;28;20066;-75
2022/04/30 00:08:01;;;;;;;11.77;5.40;;;6.90;99.90;;;;;;5094260;28;20052;-75
2022/04/30 00:10:27;;;;;;;9.23;5.28;;;6.90;99.90;;;;;;5076413;28;20087;-75
2022/04/30 00:12:53;;;;;;;9.38;4.97;;;6.90;99.90;;;;;;5076940;28;20137;-75
2022/04/30 00:15:20;;;;;;;11.10;4.90;;;7.00;99.90;;;;;;5094092;28;20486;-75
2022/04/30 00:17:46;;;;;;;10.27;5.13;;;7.40;99.90;;;;;;5094059;28;20079;-75
2022/04/30 00:20:12;;;;;;;9.25;5.38;;;6.80;99.90;;;;;;5093978;28;20054;-74
2022/04/30 00:22:38;;;;;;;8.32;5.45;;;6.80;99.90;;;;;;5076507;28;20045;-74
2022/04/30 00:25:04;;;;;;;9.60;5.18;;;6.70;99.90;;;;;;5075969;28;20040;-74
2022/04/30 00:27:31;;;;;;;10.45;4.95;;;6.80;99.90;;;;;;5094466;28;20442;-74
2022/04/30 00:29:58;;;;;;;8.73;5.43;;;6.90;99.90;;;;;;5094417;28;20048;-75
2022/04/30 00:32:24;;;;;;;9.32;5.78;;;6.70;99.90;;;;;;5093971;28;20056;-74
2022/04/30 00:34:50;;;;;;;10.15;5.75;;;6.80;99.90;;;;;;5093560;28;20035;-74
2022/04/30 00:37:15;;;;;;;7.60;5.15;;;6.90;99.90;;;;;;5093828;28;20059;-74
2022/04/30 00:39:41;;;;;;;9.48;5.60;;;6.80;99.90;;;;;;5093714;28;20040;-74
2022/04/30 00:42:11;;;;;;;10.60;5.80;;;6.70;99.90;;;;;;5093994;28;20055;-74
2022/04/30 00:44:37;;;;;;;10.75;6.35;;;6.80;99.90;;;;;;5094562;28;20067;-74
2022/04/30 00:47:03;;;;;;;11.88;5.75;;;6.70;99.90;;;;;;5094038;28;20043;-74
2022/04/30 00:49:29;;;;;;;9.75;5.60;;;6.70;99.90;;;;;;5076148;28;20052;-74
2022/04/30 00:51:59;;;;;;;9.80;5.07;;;6.70;99.90;;;;;;5093661;28;20059;-74
2022/04/30 00:54:28;;;;;;;9.52;5.70;;;6.80;99.90;;;;;;5075806;28;20062;-74
2022/04/30 00:56:59;;;;;;;9.80;5.13;;;6.80;99.90;;;;;;5075652;28;20047;-75
2022/04/30 00:59:25;;;;;;;11.00;5.75;;;6.90;99.90;;;;;;5093499;28;20051;-74
2022/04/30 01:01:51;;;;;;;10.05;5.25;;;6.80;99.90;;;;;;5075665;28;20075;-74
2022/04/30 01:04:20;;;;;;;11.05;5.72;;;6.80;99.90;;;;;;5075448;28;20048;-75
2022/04/30 01:06:52;;;;;;;9.23;5.80;;;6.80;99.90;;;;;;5093491;28;20127;-75
2022/04/30 01:09:23;;;;;;;8.95;5.22;;;6.80;99.90;;;;;;5093437;28;20044;-75
2022/04/30 01:11:57;;;;;;;9.88;5.80;;;6.80;99.90;;;;;;5093938;28;20391;-74
2022/04/30 01:14:27;;;;;;;8.68;4.90;;;6.90;99.90;;;;;;5093180;28;20503;-74
2022/04/30 01:16:56;;;;;;;11.00;5.70;;;6.80;99.90;;;;;;5075379;28;20076;-74
2022/04/30 01:19:23;;;;;;;7.82;5.38;;;7.30;99.90;;;;;;5093328;28;20044;-75
2022/04/30 01:21:52;;;;;;;12.32;5.80;;;6.80;99.90;;;;;;5075375;28;20075;-75
2022/04/30 01:24:23;;;;;;;8.35;4.85;;;6.80;99.90;;;;;;5093307;28;20484;-74
2022/04/30 01:26:53;;;;;;;8.65;5.25;;;7.70;99.90;;;;;;5093355;28;20052;-75
2022/04/30 01:29:21;;;;;;;8.75;4.93;;;6.90;99.90;;;;;;5075656;28;20156;-75
2022/04/30 01:37:25;;;;;;;9.13;5.13;;;7.00;99.90;;;;;;5093268;28;20074;-74
2022/04/30 01:39:58;;;;;;;10.27;5.38;;;6.90;99.90;;;;;;5075374;28;20051;-75
2022/04/30 01:42:24;;;;;;;7.75;4.95;;;6.80;99.90;;;;;;5093650;28;20044;-75
2022/04/30 01:44:51;;;;;;;8.32;4.80;;;7.00;99.90;;;;;;5093111;28;20097;-76
2022/04/30 01:47:18;;;;;;;9.68;5.15;;;6.80;99.90;;;;;;5076069;28;20047;-75
2022/04/30 01:49:44;;;;;;;6.63;4.47;;;6.80;99.90;;;;;;5093091;28;20044;-75
2022/04/30 01:52:13;;;;;;;10.60;5.05;;;7.00;99.90;;;;;;5076049;28;20063;-75
2022/04/30 01:54:38;;;;;;;8.52;5.10;;;6.90;99.90;;;;;;5093569;28;20044;-75
2022/04/30 01:57:04;;;;;;;7.60;4.57;;;6.70;99.90;;;;;;5075195;28;20071;-74
2022/04/30 01:59:31;;;;;;;11.13;5.22;;;6.80;99.90;;;;;;5076205;28;20396;-75
2022/04/30 02:01:57;;;;;;;8.10;4.35;;;7.00;99.90;;;;;;5078489;28;20044;-75
2022/04/30 02:04:23;;;;;;;9.55;5.20;;;6.80;99.90;;;;;;5097162;28;20044;-75
2022/04/30 02:06:50;;;;;;;10.70;5.28;;;7.10;99.90;;;;;;5078470;28;20047;-74
2022/04/30 02:09:17;;;;;;;8.13;4.60;;;6.70;99.90;;;;;;5078665;28;20056;-75
2022/04/30 02:11:44;;;;;;;10.18;5.00;;;6.80;99.90;;;;;;5078310;28;20048;-75
2022/04/30 02:14:12;;;;;;;7.47;4.40;;;7.40;99.90;;;;;;5096419;28;20127;-75
2022/04/30 02:16:39;;;;;;;8.32;4.75;;;6.70;99.90;;;;;;5096099;28;20499;-74
2022/04/30 02:19:07;;;;;;;8.27;4.53;;;6.70;99.90;;;;;;5078061;28;20110;-74
2022/04/30 02:21:33;;;;;;;8.52;4.95;;;7.00;99.90;;;;;;5096824;28;20063;-75
2022/04/30 02:24:00;;;;;;;7.68;4.53;;;7.00;99.90;;;;;;5061976;28;20048;-75
2022/04/30 02:26:27;;;;;;;8.40;4.88;;;7.40;99.90;;;;;;5096689;28;20052;-74
2022/04/30 02:28:56;;;;;;;7.25;4.95;;;7.50;99.90;;;;;;5096203;28;20173;-74
2022/04/30 02:31:26;;;;;;;7.90;4.63;;;6.70;99.90;;;;;;5096099;28;20048;-75
2022/04/30 02:33:56;;;;;;;7.15;4.80;;;6.60;99.90;;;;;;5078259;28;20052;-75
2022/04/30 02:36:26;;;;;;;6.82;4.60;;;6.60;99.90;;;;;;5096033;28;20118;-75
2022/04/30 02:38:54;;;;;;;6.43;4.55;;;6.80;99.90;;;;;;5095895;28;20067;-75
2022/04/30 02:41:21;;;;;;;9.68;4.70;;;6.80;99.90;;;;;;5077731;28;20058;-75
2022/04/30 02:43:49;;;;;;;7.85;4.90;;;6.50;99.90;;;;;;5096372;28;20097;-75
2022/04/30 02:46:14;;;;;;;6.57;4.55;;;6.70;99.90;;;;;;5095855;28;20461;-75
2022/04/30 02:48:40;;;;;;;7.25;4.50;;;6.60;99.90;;;;;;5095766;28;20044;-75
2022/04/30 02:51:07;;;;;;;8.60;4.80;;;6.70;99.90;;;;;;5077405;28;20044;-75
2022/04/30 02:53:33;;;;;;;6.65;4.18;;;7.60;99.90;;;;;;5095962;28;20048;-76
2022/04/30 02:55:59;;;;;;;8.73;4.55;;;6.60;99.90;;;;;;5061109;28;20392;-75
2022/04/30 03:01:09;;;;;;;7.63;4.45;;;6.70;99.90;;;;;;5080180;28;20083;-75
2022/04/30 03:03:34;;;;;;;7.47;4.70;;;6.70;99.90;;;;;;5095439;28;20083;-75
2022/04/30 03:06:01;;;;;;;7.15;4.35;;;6.60;99.90;;;;;;5078370;28;20094;-75
2022/04/30 03:08:27;;;;;;;7.03;4.10;;;7.00;99.90;;;;;;5095415;28;20396;-75
2022/04/30 03:10:55;;;;;;;9.38;4.32;;;6.60;99.90;;;;;;5076992;28;20507;-75
2022/04/30 03:13:22;;;;;;;5.82;3.83;;;6.50;99.90;;;;;;5095234;28;20052;-75
2022/04/30 03:15:50;;;;;;;6.88;4.38;;;6.50;99.90;;;;;;5077388;28;20111;-75
2022/04/30 03:23:48;;;;;;;6.95;4.10;;;7.10;99.90;;;;;;5095905;28;20075;-75
2022/04/30 03:26:15;;;;;;;5.40;3.80;;;8.50;99.90;;;;;;5095022;28;20472;-75
2022/04/30 03:28:42;;;;;;;6.13;4.07;;;6.80;99.90;;;;;;5077932;28;20059;-75
2022/04/30 03:31:10;;;;;;;7.60;3.67;;;6.40;99.90;;;;;;5076909;28;20127;-75
2022/04/30 03:33:36;;;;;;;7.35;4.40;;;6.50;99.90;;;;;;5094860;28;20105;-75
2022/04/30 03:36:02;;;;;;;6.63;4.03;;;6.70;99.90;;;;;;5095190;28;20060;-75
2022/04/30 03:38:28;;;;;;;6.75;3.72;;;6.40;99.90;;;;;;5094769;28;20116;-75
2022/04/30 03:40:54;;;;;;;8.40;4.38;;;6.70;99.90;;;;;;5076549;28;20040;-75
2022/04/30 03:43:20;;;;;;;6.43;4.43;;;6.50;99.90;;;;;;5094627;28;20173;-75
2022/04/30 03:45:46;;;;;;;8.10;4.05;;;6.60;99.90;;;;;;5076549;28;20130;-74
2022/04/30 03:48:12;;;;;;;6.55;4.43;;;6.30;99.90;;;;;;5094616;28;20048;-74
2022/04/30 03:50:39;;;;;;;6.50;3.85;;;6.50;99.90;;;;;;5094593;28;20054;-75
2022/04/30 03:53:05;;;;;;;5.45;3.92;;;6.40;99.90;;;;;;5076639;28;20055;-75
2022/04/30 03:55:31;;;;;;;7.70;3.83;;;6.40;99.90;;;;;;5094536;28;20055;-75
2022/04/30 03:57:57;;;;;;;7.28;3.90;;;6.30;99.90;;;;;;5094498;28;20040;-74
2022/04/30 04:00:23;;;;;;;8.10;4.22;;;6.60;99.90;;;;;;5075969;28;20094;-75
2022/04/30 04:02:49;;;;;;;6.65;4.35;;;6.40;99.90;;;;;;5076314;28;20051;-75
2022/04/30 04:05:17;;;;;;;6.18;4.10;;;6.50;99.90;;;;;;5059804;28;20135;-75
2022/04/30 04:07:43;;;;;;;5.50;3.63;;;6.40;99.90;;;;;;5094260;28;20055;-75
2022/04/30 04:10:11;;;;;;;6.90;4.60;;;6.40;99.90;;;;;;5094224;28;20094;-75
2022/04/30 04:12:37;;;;;;;7.07;3.92;;;6.40;99.90;;;;;;5094930;28;20372;-74
2022/04/30 04:17:51;;;;;;;5.28;3.97;;;6.40;99.90;;;;;;5093803;28;20486;-75
2022/04/30 04:20:24;;;;;;;6.00;4.00;;;7.30;99.90;;;;;;5093968;28;20040;-75
2022/04/30 04:22:53;;;;;;;;;;;6.40;99.90;;;;;;5094618;28;20043;-74
2022/04/30 04:28:04;;;;;;;5.88;4.13;;;6.40;99.90;;;;;;5093988;28;20052;-75
2022/04/30 04:30:31;;;;;;;9.30;4.45;;;6.40;99.90;;;;;;5075887;28;20444;-75
2022/04/30 04:32:58;;;;;;;7.10;4.43;;;7.30;99.90;;;;;;5076557;28;20467;-74
2022/04/30 04:35:24;;;;;;;7.18;4.47;;;6.10;99.90;;;;;;5075619;28;20484;-74
2022/04/30 04:37:51;;;;;;;9.77;4.65;;;6.20;99.90;;;;;;5093890;28;20471;-75
2022/04/30 04:40:18;;;;;;;7.13;4.43;;;6.60;99.90;;;;;;5094536;28;20084;-75
2022/04/30 04:42:45;;;;;;;6.13;3.80;;;6.60;99.90;;;;;;5076137;28;20142;-74
2022/04/30 04:45:12;;;;;;;7.57;4.45;;;6.70;99.90;;;;;;5093982;28;20098;-75
2022/04/30 04:47:40;;;;;;;8.00;4.32;;;6.90;99.90;;;;;;5075837;28;20054;-74
2022/04/30 04:50:12;;;;;;;6.80;4.30;;;6.30;99.90;;;;;;5059349;28;20112;-74
2022/04/30 04:52:41;;;;;;;5.88;3.70;;;6.80;99.90;;;;;;5075837;28;20439;-75
2022/04/30 04:55:08;;;;;;;4.72;3.72;;;6.50;99.90;;;;;;5075746;28;20048;-75
2022/04/30 04:57:33;;;;;;;5.85;4.50;;;6.60;99.90;;;;;;5059116;28;20059;-75
2022/04/30 04:59:59;;;;;;;9.98;4.28;;;7.40;99.90;;;;;;5075557;28;20111;-74
2022/04/30 05:02:25;;;;;;;7.72;4.43;;;7.20;99.90;;;;;;5075481;28;20048;-74
2022/04/30 05:04:51;;;;;;;9.10;4.32;;;6.40;99.90;;;;;;5093469;28;20052;-74
2022/04/30 05:07:17;;;;;;;4.70;3.67;;;7.10;99.90;;;;;;5059833;28;20090;-75
2022/04/30 05:09:43;;;;;;;7.68;4.20;;;6.70;99.90;;;;;;5093458;28;20051;-75
2022/04/30 05:12:09;;;;;;;8.23;4.50;;;6.70;99.90;;;;;;5075524;28;20044;-75
2022/04/30 05:14:35;;;;;;;7.70;4.30;;;6.70;99.90;;;;;;5075598;28;20453;-74
2022/04/30 05:17:02;;;;;;;6.35;3.88;;;6.80;99.90;;;;;;5093421;28;20047;-74
2022/04/30 05:19:27;;;;;;;7.13;4.20;;;6.80;99.90;;;;;;5093350;28;20500;-74
2022/04/30 05:21:53;;;;;;;5.72;3.70;;;6.90;99.90;;;;;;5059211;28;20140;-74
2022/04/30 05:24:19;;;;;;;5.55;3.88;;;6.90;99.90;;;;;;5093903;28;20388;-74
2022/04/30 05:26:45;;;;;;;6.50;4.00;;;7.00;99.90;;;;;;5093354;28;20079;-74
2022/04/30 05:29:11;;;;;;;7.38;3.58;;;7.70;99.90;;;;;;5058729;28;20048;-74
2022/04/30 05:31:36;;;;;;;9.88;4.45;;;6.90;99.90;;;;;;5075978;28;20117;-74
2022/04/30 05:34:02;;;;;;;7.38;3.75;;;6.90;99.90;;;;;;5076634;28;20135;-74
2022/04/30 05:36:28;;;;;;;5.43;3.95;;;7.00;99.90;;;;;;5097508;28;20391;-74
2022/04/30 05:38:54;;;;;;;5.93;3.50;;;7.10;99.90;;;;;;5079164;28;20136;-74
2022/04/30 05:41:19;;;;;;;7.78;4.45;;;6.90;99.90;;;;;;5079235;28;20139;-74
2022/04/30 05:43:45;;;;;;;6.20;4.15;;;7.00;99.90;;;;;;5097510;28;20059;-74
2022/04/30 05:46:13;;;;;;;5.10;3.92;;;7.30;99.90;;;;;;5062527;28;20093;-74
2022/04/30 05:48:39;;;;;;;6.82;3.88;;;7.10;99.90;;;;;;5096941;28;20479;-74
2022/04/30 05:51:05;;;;;;;5.25;3.70;;;7.30;99.90;;;;;;5078802;28;20059;-75
2022/04/30 05:53:31;;;;;;;9.02;4.35;;;7.20;99.90;;;;;;5096846;28;20051;-74
2022/04/30 05:55:57;;;;;;;7.43;3.88;;;7.30;99.90;;;;;;5097388;28;20131;-75
2022/04/30 05:58:23;;;;;;;5.60;4.00;;;7.30;99.90;;;;;;5079619;28;20136;-75
2022/04/30 06:00:49;;;;;;;7.50;3.95;;;7.40;99.90;;;;;;5096675;28;20079;-75
2022/04/30 06:03:14;;;;;;;7.03;4.22;;;7.50;99.90;;;;;;5096716;28;20055;-74
2022/04/30 06:05:40;;;;;;;4.97;3.72;;;7.50;99.90;;;;;;5078330;28;20093;-75
2022/04/30 06:08:06;;;;;;;5.38;3.70;;;7.60;99.90;;;;;;5096563;28;20051;-74
2022/04/30 06:10:32;;;;;;;5.35;4.00;;;7.60;99.90;;;;;;5096513;28;20048;-74
2022/04/30 06:12:58;;;;;;;7.10;3.92;;;7.70;99.90;;;;;;5096920;28;20126;-74
2022/04/30 06:15:24;;;;;;;8.63;3.67;;;7.90;99.90;;;;;;5096722;28;20051;-75
2022/04/30 06:17:49;;;;;;;6.10;4.10;;;8.10;99.90;;;;;;5096412;28;20642;-75
2022/04/30 06:20:15;;;;;;;8.73;4.07;;;7.70;99.90;;;;;;5096480;28;20051;-74
2022/04/30 06:22:41;;;;;;;7.00;4.05;;;7.60;99.90;;;;;;5096360;28;20048;-74
2022/04/30 06:25:07;;;;;;;7.30;4.03;;;8.00;99.90;;;;;;5078460;28;20066;-74
2022/04/30 06:27:33;;;;;;;7.50;4.55;;;7.70;99.90;;;;;;5096213;28;20063;-74
2022/04/30 06:30:00;;;;;;;7.30;4.47;;;8.00;99.90;;;;;;5096187;28;20119;-74
2022/04/30 06:32:26;;;;;;;5.85;3.72;;;7.80;99.90;;;;;;5078269;28;20051;-75
2022/04/30 06:34:51;;;;;;;8.35;4.68;;;7.90;99.90;;;;;;5078193;28;20044;-75
2022/04/30 06:37:17;;;;;;;6.07;4.43;;;8.30;99.90;;;;;;5095851;28;20059;-75
2022/04/30 06:39:44;;;;;;;8.73;4.13;;;7.90;99.90;;;;;;5078490;28;20453;-75
2022/04/30 06:42:10;;;;;;;9.15;4.18;;;7.90;99.90;;;;;;5095517;28;20565;-74
2022/04/30 06:44:35;;;;;;;9.20;4.50;;;8.00;99.90;;;;;;5095754;28;20052;-75
2022/04/30 06:47:01;;;;;;;6.35;4.10;;;8.50;99.90;;;;;;5095449;28;20084;-74
2022/04/30 06:49:27;;;;;;;5.07;4.25;;;8.00;99.90;;;;;;5077611;28;20044;-74
2022/04/30 06:51:52;;;;;;;7.07;3.97;;;8.00;99.90;;;;;;5095816;28;20075;-74
2022/04/30 06:57:16;;;;;;;7.38;4.53;;;8.00;99.90;;;;;;5096069;28;20048;-74
2022/04/30 06:59:42;;;;;;;5.80;3.83;;;8.10;99.90;;;;;;5062889;28;20036;-75
2022/04/30 07:02:13;;;;;;;6.68;4.05;;;8.60;99.90;;;;;;5095467;28;20088;-75
2022/04/30 07:04:42;;;;;;;8.13;4.03;;;8.20;99.90;;;;;;5095773;28;20126;-75
2022/04/30 07:07:09;;;;;;;7.50;4.20;;;8.30;99.90;;;;;;5060900;28;20142;-75
2022/04/30 07:09:36;;;;;;;6.30;4.55;;;8.30;99.90;;;;;;5077511;28;20139;-75
2022/04/30 07:12:04;;;;;;;5.45;3.92;;;8.40;99.90;;;;;;5095383;28;20092;-75
2022/04/30 07:14:32;;;;;;;6.07;4.20;;;8.40;99.90;;;;;;5095259;28;20109;-76
2022/04/30 07:16:58;;;;;;;6.55;4.43;;;8.50;99.90;;;;;;5095886;28;20437;-76
2022/04/30 07:19:23;;;;;;;4.65;3.78;;;8.80;99.90;;;;;;5095262;28;20032;-75
2022/04/30 07:21:49;;;;;;;5.38;4.05;;;8.70;99.90;;;;;;5095198;28;20164;-75
2022/04/30 07:24:15;;;;;;;5.68;3.97;;;9.00;99.90;;;;;;5095183;28;20052;-76
2022/04/30 07:26:40;;;;;;;5.43;4.00;;;8.90;99.90;;;;;;5077186;28;20044;-75
2022/04/30 07:29:06;;;;;;;5.28;3.20;;;9.00;99.90;;;;;;5077621;28;20116;-75
2022/04/30 07:31:32;;;;;;;7.85;3.22;;;9.10;99.90;;;;;;5095394;28;20434;-75
2022/04/30 07:33:57;;;;;;;5.45;3.13;;;9.20;99.90;;;;;;5095060;28;20043;-76
2022/04/30 07:36:23;;;;;;;6.05;2.90;;;9.20;99.90;;;;;;5094846;28;20060;-75
2022/04/30 07:38:49;;;;;;;3.83;2.80;;;9.20;99.90;;;;;;5060268;28;20093;-75
2022/04/30 07:41:15;;;;;;;4.95;2.80;;;9.40;99.90;;;;;;5095169;28;20122;-75
2022/04/30 07:43:40;;;;;;;3.92;2.50;;;9.40;99.90;;;;;;5094895;28;20070;-77
2022/04/30 07:46:06;;;;;;;4.82;2.80;;;9.50;99.90;;;;;;5077127;28;20166;-76
2022/04/30 07:48:32;;;;;;;5.53;3.15;;;9.60;99.90;;;;;;5094523;28;20086;-75
2022/04/30 07:50:58;;;;;;;8.18;3.70;;;9.70;99.90;;;;;;5094782;28;20036;-76
2022/04/30 07:53:25;;;;;;;5.25;3.25;;;9.70;99.90;;;;;;5076898;28;20048;-76
2022/04/30 07:55:52;;;;;;;5.88;3.88;;;10.00;99.90;;;;;;5095289;28;20048;-77
2022/04/30 07:58:18;;;;;;;5.22;3.67;;;9.90;99.90;;;;;;5094380;28;20055;-77
2022/04/30 08:00:44;;;;;;;5.68;3.40;;;9.90;99.90;;;;;;5077381;28;20044;-78
2022/04/30 08:03:10;;;;;;;5.35;3.55;;;10.00;99.90;;;;;;5060296;28;20048;-77
2022/04/30 08:05:35;;;;;;;6.70;3.88;;;10.00;99.90;;;;;;5094524;28;20051;-77
2022/04/30 08:08:01;;;;;;;4.60;3.58;;;9.90;99.90;;;;;;5076371;28;20131;-76
2022/04/30 08:10:27;;;;;;;4.65;2.92;;;10.50;99.90;;;;;;5094454;28;20047;-76
2022/04/30 08:12:54;;;;;;;3.00;2.67;;;10.10;99.90;;;;;;5094296;28;20464;-76
2022/04/30 08:15:21;;;;;;;5.32;3.00;;;10.10;99.90;;;;;;5077026;28;20048;-77
2022/04/30 08:17:47;;;;;;;4.15;2.65;;;10.10;99.90;;;;;;5094598;28;20480;-77
2022/04/30 08:20:12;;;;;;;4.00;3.03;;;10.10;99.90;;;;;;5094475;28;20036;-77
2022/04/30 08:22:39;;;;;;;7.75;3.17;;;10.20;99.90;;;;;;5076654;28;20571;-77
2022/04/30 08:25:05;;;;;;;4.63;2.70;;;10.20;99.90;;;;;;5076123;28;20415;-77
2022/04/30 08:27:31;;;;;;;5.72;3.13;;;10.30;99.90;;;;;;5094125;28;20047;-77
2022/04/30 08:29:57;;;;;;;2.92;2.60;;;10.30;99.90;;;;;;5094083;28;20100;-81
2022/04/30 08:32:26;;;;;;;5.05;3.03;;;10.30;99.90;;;;;;5043149;28;20048;-77
2022/04/30 08:34:52;;;;;;;5.05;2.53;;;10.30;99.90;;;;;;5076978;28;20051;-74
2022/04/30 08:37:18;;;;;;;4.32;2.53;;;10.30;99.90;;;;;;5076597;28;20472;-76
2022/04/30 08:39:45;;;;;;;5.63;2.67;;;10.50;99.90;;;;;;5093606;28;20059;-78
2022/04/30 08:42:13;;;;;;;3.83;3.17;;;10.40;99.90;;;;;;5094122;28;20079;-76
2022/04/30 08:44:39;;;;;;;4.45;3.17;;;10.30;99.90;;;;;;5094510;28;20122;-78
2022/04/30 08:47:06;;;;;;;6.70;3.00;;;10.30;99.90;;;;;;5093855;28;20052;-76
2022/04/30 08:49:33;;;;;;;5.80;3.13;;;10.40;99.90;;;;;;5094135;28;20055;-78
2022/04/30 08:51:59;;;;;;;5.22;3.30;;;10.40;99.90;;;;;;5093783;28;20054;-79
2022/04/30 08:54:25;;;;;;;5.20;2.45;;;10.40;99.90;;;;;;5093759;28;20204;-76
2022/04/30 08:56:55;;;;;;;5.05;2.70;;;10.40;99.90;;;;;;5094315;28;20048;-75
2022/04/30 08:59:22;;;;;;;3.90;2.58;;;10.40;99.90;;;;;;5093663;28;20047;-76
2022/04/30 09:01:58;;;;;;;3.50;2.60;;;10.40;99.90;;;;;;5075582;28;20102;-76
2022/04/30 09:04:25;;;;;;;4.45;2.75;;;10.50;99.90;;;;;;5093754;28;20059;-76
2022/04/30 09:06:53;;;;;;;3.83;2.75;;;11.00;99.90;;;;;;5093150;28;20040;-73
2022/04/30 09:09:29;;;;;;;3.88;2.53;;;10.50;99.90;;;;;;5077740;28;20407;-73
2022/04/30 09:12:08;;;;;;;3.97;2.65;;;10.60;99.90;;;;;;5097393;28;20043;-74
2022/04/30 09:14:36;;;;;;;5.53;3.20;;;10.60;99.90;;;;;;5098006;28;20130;-75
2022/04/30 09:17:09;;;;;;;6.72;3.40;;;10.60;99.90;;;;;;5063103;28;20094;-75
2022/04/30 09:19:51;;;;;;;4.03;2.93;;;10.70;99.90;;;;;;5096522;28;20036;-75
2022/04/30 09:22:35;;;;;;;5.18;3.20;;;10.80;99.90;;;;;;5078923;28;20101;-75
2022/04/30 09:25:04;;;;;;;5.65;3.03;;;10.80;99.90;;;;;;5096771;28;20051;-75
2022/04/30 09:27:31;;;;;;;6.53;3.50;;;10.80;99.90;;;;;;5096431;28;20444;-75
2022/04/30 09:29:58;;;;;;;4.22;3.03;;;10.80;99.90;;;;;;5096929;28;20054;-74
2022/04/30 09:32:28;;;;;;;4.50;3.00;;;10.80;99.90;;;;;;5079756;28;20141;-74
2022/04/30 09:37:49;;;;;;;5.43;2.95;;;10.90;99.90;;;;;;5079003;28;20499;-74
2022/04/30 09:40:14;;;;;;;5.90;2.50;;;11.00;99.90;;;;;;5063498;28;20133;-75
2022/04/30 09:42:41;;;;;;;3.17;2.78;;;11.00;99.90;;;;;;5096540;28;20495;-75
2022/04/30 09:45:08;;;;;;;3.95;2.60;;;11.10;99.90;;;;;;5096757;28;20039;-76
2022/04/30 09:47:34;;;;;;;3.13;2.75;;;11.10;99.90;;;;;;5078189;28;20056;-75
2022/04/30 09:55:30;;;;;;;4.18;2.22;;;11.10;99.90;;;;;;5096584;28;20400;-73
2022/04/30 09:57:59;;;;;;;3.25;2.22;;;11.20;99.90;;;;;;5096155;28;20055;-73
2022/04/30 10:00:26;;;;;;;4.72;2.55;;;11.20;99.90;;;;;;5078093;28;20051;-74
2022/04/30 10:02:57;;;;;;;5.20;3.38;;;11.30;99.90;;;;;;5096303;28;20047;-74
2022/04/30 10:05:24;;;;;;;4.13;2.70;;;11.30;99.90;;;;;;5096596;28;20044;-74
2022/04/30 10:07:51;;;;;;;4.22;2.95;;;11.30;99.90;;;;;;5096005;28;20044;-74
2022/04/30 10:10:28;;;;;;;3.83;2.58;;;11.40;99.90;;;;;;5096613;28;20048;-74
2022/04/30 10:13:15;;;;;;;5.72;2.80;;;11.30;99.90;;;;;;5095959;28;20060;-77
2022/04/30 10:15:51;;;;;;;2.92;2.30;;;11.40;99.90;;;;;;5078194;28;20050;-74
2022/04/30 10:18:19;;;;;;;4.00;2.20;;;11.50;99.90;;;;;;5079024;28;20115;-74
2022/04/30 10:20:52;;;;;;;2.28;1.88;;;11.50;99.90;;;;;;5095621;28;20357;-74
2022/04/30 10:23:17;;;;;;;;;;;11.50;99.90;;;;;;5096069;28;20503;-75
2022/04/30 10:25:48;;;;;;;3.95;1.60;;;11.40;99.90;;;;;;5077959;28;19921;-74
2022/04/30 10:28:17;;;;;;;3.95;1.83;;;11.40;99.90;;;;;;5078489;28;20090;-74
2022/04/30 10:30:44;;;;;;;2.47;1.65;;;11.70;99.90;;;;;;5078528;28;20346;-76
2022/04/30 10:33:10;;;;;;;2.50;1.80;;;11.50;99.90;;;;;;5095584;28;20047;-74
2022/04/30 10:35:44;;;;;;;5.80;1.98;;;11.50;99.90;;;;;;5095223;28;20442;-76
2022/04/30 10:38:19;;;;;;;5.07;2.05;;;11.50;99.90;;;;;;5096188;28;20048;-74
2022/04/30 10:40:56;;;;;;;4.40;2.10;;;11.40;99.90;;;;;;5095206;28;20106;-75
2022/04/30 10:43:28;;;;;;;2.65;2.20;;;11.50;99.90;;;;;;5095768;28;20075;-75
2022/04/30 10:45:56;;;;;;;4.38;2.97;;;11.50;99.90;;;;;;5078071;28;20048;-74
2022/04/30 10:48:22;;;;;;;4.72;2.20;;;11.50;99.90;;;;;;5095468;28;20074;-74
2022/04/30 10:50:51;;;;;;;6.15;2.40;;;11.60;99.90;;;;;;5095378;28;20078;-75
2022/04/30 10:53:23;;;;;;;3.80;2.35;;;11.60;99.90;;;;;;5096029;28;20108;-75
2022/04/30 10:55:50;;;;;;;3.40;2.45;;;11.60;99.90;;;;;;5077480;28;20078;-76
2022/04/30 10:58:23;;;;;;;6.95;2.50;;;11.60;99.90;;;;;;5077173;28;20055;-75
2022/04/30 11:00:49;;;;;;;3.03;1.92;;;11.70;99.90;;;;;;5094829;28;20140;-75
2022/04/30 11:03:14;;;;;;;3.47;2.30;;;11.70;99.90;;;;;;5060136;28;20483;-76
2022/04/30 11:05:42;;;;;;;5.40;2.42;;;11.70;99.90;;;;;;5095114;28;20129;-76
2022/04/30 11:08:07;;;;;;;4.40;2.70;;;11.70;99.90;;;;;;5094788;28;20044;-75
2022/04/30 11:10:33;;;;;;;3.00;2.10;;;11.80;99.90;;;;;;5076929;28;20055;-74
2022/04/30 11:13:06;;;;;;;3.72;2.72;;;11.80;99.90;;;;;;5094539;28;20131;-77
2022/04/30 11:15:32;;;;;;;;;;;11.90;99.90;;;;;;5095471;28;20040;-77
2022/04/30 11:17:59;;;;;;;6.25;2.92;;;11.90;99.90;;;;;;5095058;28;19927;-75
2022/04/30 11:20:26;;;;;;;2.95;2.58;;;11.90;99.90;;;;;;5077380;28;20454;-76
2022/04/30 11:22:57;;;;;;;4.85;2.08;;;11.60;99.90;;;;;;5076792;28;20044;-74
2022/04/30 11:25:31;;;;;;;4.05;2.20;;;11.30;99.90;;;;;;5060029;28;20047;-75
2022/04/30 11:27:58;;;;;;;4.35;2.50;;;11.00;99.90;;;;;;5077351;28;20040;-72
2022/04/30 11:30:24;;;;;;;2.33;1.80;;;10.70;99.90;;;;;;5094269;28;20040;-72
2022/04/30 11:32:50;;;;;;;8.40;3.10;;;10.50;99.90;;;;;;5075659;28;20106;-74
2022/04/30 11:35:16;;;;;;;3.65;2.97;;;10.60;99.90;;;;;;5094381;28;20503;-74
2022/04/30 11:37:43;;;;;;;3.97;2.47;;;10.50;99.90;;;;;;5077055;28;20060;-73
2022/04/30 11:40:09;;;;;;;5.57;3.65;;;10.40;99.90;;;;;;5094566;28;20097;-77
2022/04/30 11:42:35;;;;;;;4.95;2.95;;;10.40;99.90;;;;;;5075844;28;20515;-73
2022/04/30 11:45:02;;;;;;;2.58;2.30;;;10.40;99.90;;;;;;5076002;28;20048;-73
2022/04/30 11:47:27;;;;;;;5.72;2.97;;;10.40;99.90;;;;;;5094418;28;20527;-73
2022/04/30 11:50:23;;;;;;;3.97;3.05;;;10.40;99.90;;;;;;5093986;28;20127;-73
2022/04/30 11:52:49;;;;;;;5.75;3.88;;;10.50;99.90;;;;;;5055172;28;20063;-73
2022/04/30 11:55:16;;;;;;;3.55;3.08;;;10.50;99.90;;;;;;5093854;28;20553;-73
2022/04/30 11:57:43;;;;;;;3.97;3.03;;;10.70;99.90;;;;;;5094100;28;20044;-73
2022/04/30 12:00:10;;;;;;;4.15;2.70;;;10.70;99.90;;;;;;5093832;28;20044;-72
2022/04/30 12:02:39;;;;;;;4.97;2.45;;;10.70;99.90;;;;;;5076738;28;20056;-74
2022/04/30 12:05:06;;;;;;;4.55;2.50;;;10.70;99.90;;;;;;5076621;28;20071;-74
2022/04/30 12:08:01;;;;;;;6.30;2.80;;;10.80;99.90;;;;;;5075577;28;20052;-74
2022/04/30 12:10:28;;;;;;;3.45;2.22;;;10.80;99.90;;;;;;5056630;28;20118;-73
2022/04/30 12:12:54;;;;;;;4.15;2.53;;;10.80;99.90;;;;;;5076379;28;20126;-74
2022/04/30 12:15:28;;;;;;;6.95;2.10;;;10.80;99.90;;;;;;5076746;28;20115;-72
2022/04/30 12:27:02;;;;;;;3.95;2.47;;;11.00;99.90;;;;;;5093620;28;20052;-75
2022/04/30 12:29:30;;;;;;;2.35;1.85;;;11.10;99.90;;;;;;5093063;28;20047;-73
2022/04/30 12:31:56;;;;;;;3.33;1.80;;;11.20;99.90;;;;;;5093957;28;20074;-73
2022/04/30 12:34:32;;;;;;;3.35;1.80;;;11.30;99.90;;;;;;5093807;28;20097;-76
2022/04/30 12:36:59;;;;;;;3.38;1.73;;;11.30;99.90;;;;;;5074629;28;20055;-73
2022/04/30 12:39:25;;;;;;;3.10;1.73;;;11.50;99.90;;;;;;5075585;28;20368;-72
2022/04/30 12:41:52;;;;;;;3.42;2.22;;;11.50;99.90;;;;;;5093253;28;20043;-74
2022/04/30 12:44:18;;;;;;;5.15;2.20;;;11.60;99.90;;;;;;5075116;28;20104;-74
2022/04/30 12:46:45;;;;;;;3.65;1.60;;;11.70;99.90;;;;;;5076401;28;20044;-75
2022/04/30 12:49:12;;;;;;;2.45;1.85;;;11.70;99.90;;;;;;5092792;28;20126;-73
2022/04/30 12:51:40;;;;;;;2.63;1.45;;;11.80;99.90;;;;;;5093133;28;20102;-75
2022/04/30 12:54:13;;;;;;;3.08;1.65;;;11.80;99.90;;;;;;5093187;28;20044;-74
2022/04/30 12:56:44;;;;;;;2.25;1.40;;;11.90;99.90;;;;;;5093710;28;20357;-74
2022/04/30 12:59:10;;;;;;;3.20;1.40;;;12.00;99.90;;;;;;5093293;28;20047;-73
2022/04/30 13:01:37;;;;;;;2.50;1.48;;;11.90;99.90;;;;;;5092907;28;20040;-72
2022/04/30 13:04:03;;;;;;;2.10;1.10;;;12.00;99.90;;;;;;5093898;28;20468;-73
2022/04/30 13:06:30;;;;;;;1.30;1.02;;;12.10;99.90;;;;;;5075595;28;20048;-73
2022/04/30 13:14:28;;;;;;;3.00;1.05;;;12.20;99.90;;;;;;5093627;28;20055;-74
2022/04/30 13:16:54;;;;;;;1.70;1.40;;;12.20;99.90;;;;;;5093809;28;20040;-75
2022/04/30 13:19:20;;;;;;;4.40;1.90;;;12.20;99.90;;;;;;5093957;28;20055;-73
2022/04/30 13:21:49;;;;;;;3.72;1.40;;;12.30;99.90;;;;;;5075675;28;20394;-73
2022/04/30 13:24:15;;;;;;;2.38;1.23;;;12.30;99.90;;;;;;5093515;28;20044;-74
2022/04/30 13:26:42;;;;;;;1.63;1.00;;;12.30;99.90;;;;;;5059826;28;20056;-76
2022/04/30 13:29:11;;;;;;;2.28;1.10;;;12.30;99.90;;;;;;5093429;28;20056;-74
2022/04/30 13:31:41;;;;;;;1.55;1.10;;;12.30;99.90;;;;;;5075492;28;20498;-73
2022/04/30 13:34:07;;;;;;;1.42;1.05;;;12.30;99.90;;;;;;5075997;28;20048;-74
2022/04/30 13:36:34;;;;;;;2.85;1.40;;;12.30;99.90;;;;;;5093616;28;20102;-74
2022/04/30 13:39:00;;;;;;;2.83;1.35;;;12.30;99.90;;;;;;5058830;28;20048;-74